Time;durP1;ratioP1;P1;durP2;ratioP2;P2;SDS_P1;SDS_P2;PMS_P1;PMS_P2;Temp;Humidity;BMP_temperature;BMP_pressure;BME280_temperature;BME280_humidity;BME280_pressure;Samples;Min_cycle;Max_cycle;Signal;HPM_P1;HPM_P2
2020/12/20 00:02:08;;;;;;;41.23;21.90;;;3.50;99.90;;;;;;5084487;28;20300;-77
2020/12/20 00:04:35;;;;;;;41.60;22.13;;;3.50;99.90;;;;;;5087458;28;20267;-77
2020/12/20 00:07:02;;;;;;;38.67;21.30;;;3.60;99.90;;;;;;5090815;28;20205;-77
2020/12/20 00:09:29;;;;;;;44.17;22.80;;;3.60;99.90;;;;;;5085834;28;20264;-77
2020/12/20 00:11:56;;;;;;;43.53;23.50;;;3.60;99.90;;;;;;5084874;28;20324;-78
2020/12/20 00:14:29;;;;;;;41.40;22.53;;;3.60;99.90;;;;;;5086894;28;20205;-77
2020/12/20 00:16:58;;;;;;;42.83;22.70;;;3.60;99.90;;;;;;5091250;28;20288;-79
2020/12/20 00:19:25;;;;;;;40.67;23.03;;;3.60;99.90;;;;;;5089321;28;20212;-77
2020/12/20 00:21:59;;;;;;;41.23;21.77;;;3.70;99.90;;;;;;5087900;28;20637;-78
2020/12/20 00:24:27;;;;;;;40.00;21.40;;;3.70;99.90;;;;;;5089095;28;20227;-78
2020/12/20 00:26:55;;;;;;;41.63;21.77;;;3.70;99.90;;;;;;5085835;28;20294;-78
2020/12/20 00:29:23;;;;;;;38.17;20.67;;;3.70;99.90;;;;;;5086572;28;20223;-79
2020/12/20 00:31:50;;;;;;;40.30;22.90;;;3.70;99.90;;;;;;5086564;28;20260;-79
2020/12/20 00:34:16;;;;;;;40.57;22.23;;;3.70;99.90;;;;;;5086652;28;20268;-78
2020/12/20 00:36:45;;;;;;;41.07;21.03;;;3.70;99.90;;;;;;5090905;28;20245;-79
2020/12/20 00:39:14;;;;;;;41.50;21.23;;;3.80;99.90;;;;;;5093737;28;20594;-79
2020/12/20 00:41:41;;;;;;;41.60;21.53;;;3.80;99.90;;;;;;5089722;28;20232;-79
2020/12/20 00:44:09;;;;;;;40.67;22.70;;;3.80;99.90;;;;;;5091193;28;20657;-78
2020/12/20 00:46:35;;;;;;;40.97;22.40;;;3.80;99.90;;;;;;5088664;28;20284;-78
2020/12/20 00:49:02;;;;;;;43.43;22.87;;;3.90;99.90;;;;;;5092598;28;20205;-78
2020/12/20 00:51:31;;;;;;;36.20;21.00;;;3.90;99.90;;;;;;5088380;28;20241;-78
2020/12/20 00:53:57;;;;;;;40.10;21.20;;;3.90;99.90;;;;;;5082481;28;20207;-77
2020/12/20 00:56:24;;;;;;;40.63;21.77;;;4.00;99.90;;;;;;5086057;28;20228;-79
2020/12/20 00:58:52;;;;;;;39.70;21.77;;;4.00;99.90;;;;;;5086446;28;20212;-78
2020/12/20 01:01:18;;;;;;;40.47;21.60;;;4.00;99.90;;;;;;5088280;28;20211;-79
2020/12/20 01:03:45;;;;;;;36.87;20.80;;;3.90;99.90;;;;;;5088081;28;20237;-79
2020/12/20 01:06:15;;;;;;;40.80;21.47;;;4.30;99.90;;;;;;5092541;28;20232;-78
2020/12/20 01:08:42;;;;;;;40.10;19.73;;;3.90;99.90;;;;;;5090694;28;20198;-77
2020/12/20 01:11:09;;;;;;;43.73;22.37;;;3.90;99.90;;;;;;5089981;28;20209;-76
2020/12/20 01:13:36;;;;;;;43.83;23.43;;;3.90;99.90;;;;;;5094732;28;20216;-76
2020/12/20 01:16:04;;;;;;;44.27;22.40;;;3.90;99.90;;;;;;5084013;28;20206;-77
2020/12/20 01:18:30;;;;;;;42.40;22.23;;;3.90;99.90;;;;;;5085202;28;20225;-78
2020/12/20 01:20:57;;;;;;;40.57;22.37;;;3.90;99.90;;;;;;5085614;28;20212;-78
2020/12/20 01:23:23;;;;;;;47.97;23.37;;;3.90;99.90;;;;;;5086732;28;20208;-78
2020/12/20 01:25:49;;;;;;;42.50;23.43;;;3.90;99.90;;;;;;5083397;28;20594;-78
2020/12/20 01:28:16;;;;;;;46.43;22.67;;;3.90;99.90;;;;;;5082670;28;20223;-77
2020/12/20 01:30:42;;;;;;;42.67;23.10;;;4.00;99.90;;;;;;5087280;28;20220;-78
2020/12/20 01:33:10;;;;;;;44.23;22.27;;;4.00;99.90;;;;;;5092159;28;20291;-78
2020/12/20 01:35:36;;;;;;;44.43;23.03;;;4.00;99.90;;;;;;5089785;28;20239;-78
2020/12/20 01:38:02;;;;;;;40.53;22.53;;;4.00;99.90;;;;;;5084606;28;20226;-78
2020/12/20 01:40:29;;;;;;;39.67;21.37;;;4.10;99.90;;;;;;5088548;28;20288;-77
2020/12/20 01:42:56;;;;;;;41.50;22.50;;;4.00;99.90;;;;;;5093203;28;20239;-79
2020/12/20 01:45:22;;;;;;;45.13;21.23;;;4.00;99.90;;;;;;5082299;28;20205;-78
2020/12/20 01:47:49;;;;;;;42.57;21.63;;;4.10;99.90;;;;;;5085588;28;20292;-77
2020/12/20 01:50:17;;;;;;;39.23;21.10;;;4.00;99.90;;;;;;5081215;28;20235;-77
2020/12/20 01:52:43;;;;;;;39.17;21.73;;;4.00;99.90;;;;;;5087412;28;20212;-78
2020/12/20 01:55:11;;;;;;;40.23;20.27;;;4.00;99.90;;;;;;5085395;28;20217;-78
2020/12/20 01:57:37;;;;;;;35.20;20.07;;;4.00;99.90;;;;;;5085630;28;20221;-77
2020/12/20 02:00:05;;;;;;;38.97;19.73;;;3.90;99.90;;;;;;5086982;28;20239;-76
2020/12/20 02:02:32;;;;;;;41.77;20.67;;;3.90;99.90;;;;;;5083373;28;20201;-77
2020/12/20 02:04:59;;;;;;;38.67;21.50;;;3.90;99.90;;;;;;5082754;28;20296;-76
2020/12/20 02:07:26;;;;;;;36.27;20.10;;;3.90;99.90;;;;;;5092665;28;20611;-76
2020/12/20 02:09:52;;;;;;;33.00;18.23;;;3.90;99.90;;;;;;5080888;28;20662;-77
2020/12/20 02:12:19;;;;;;;40.07;20.20;;;3.90;99.90;;;;;;5079178;28;20307;-77
2020/12/20 02:14:45;;;;;;;37.17;19.70;;;3.90;99.90;;;;;;5085403;28;20209;-77
2020/12/20 02:17:12;;;;;;;40.93;20.00;;;3.90;99.90;;;;;;5086932;28;20239;-78
2020/12/20 02:19:39;;;;;;;31.77;18.47;;;3.80;99.90;;;;;;5086840;28;20251;-77
2020/12/20 02:22:06;;;;;;;38.53;19.43;;;3.90;99.90;;;;;;5085035;28;20189;-77
2020/12/20 02:24:32;;;;;;;38.53;19.27;;;3.80;99.90;;;;;;5087076;28;20193;-77
2020/12/20 02:26:59;;;;;;;35.67;18.17;;;3.80;99.90;;;;;;5082628;28;20633;-77
2020/12/20 02:29:25;;;;;;;34.33;18.57;;;3.80;99.90;;;;;;5086010;28;20274;-78
2020/12/20 02:31:52;;;;;;;36.93;18.63;;;3.80;99.90;;;;;;5082462;28;20212;-77
2020/12/20 02:34:18;;;;;;;38.03;19.13;;;3.80;99.90;;;;;;5082762;28;20319;-77
2020/12/20 02:36:46;;;;;;;36.17;18.83;;;3.80;99.90;;;;;;5091098;28;20221;-76
2020/12/20 02:39:13;;;;;;;35.97;18.53;;;3.70;99.90;;;;;;5087665;28;20306;-77
2020/12/20 02:41:39;;;;;;;38.00;18.43;;;3.80;99.90;;;;;;5082354;28;20241;-78
2020/12/20 02:44:06;;;;;;;36.97;18.20;;;3.80;99.90;;;;;;5080825;28;20287;-78
2020/12/20 02:46:32;;;;;;;42.07;19.07;;;3.80;99.90;;;;;;5083810;28;20223;-78
2020/12/20 02:48:59;;;;;;;36.87;18.70;;;3.70;99.90;;;;;;5087192;28;20208;-78
2020/12/20 02:51:27;;;;;;;33.13;18.13;;;3.70;99.90;;;;;;5084905;28;20262;-78
2020/12/20 02:53:53;;;;;;;37.03;19.17;;;3.70;99.90;;;;;;5084052;28;20323;-77
2020/12/20 02:56:22;;;;;;;36.77;18.20;;;3.70;99.90;;;;;;5088434;28;20300;-77
2020/12/20 02:58:49;;;;;;;33.83;18.27;;;3.70;99.90;;;;;;5086100;28;20239;-77
2020/12/20 03:01:15;;;;;;;40.23;19.30;;;3.70;99.90;;;;;;5086338;28;20228;-78
2020/12/20 03:03:42;;;;;;;39.43;19.97;;;3.70;99.90;;;;;;5086840;28;20231;-77
2020/12/20 03:06:10;;;;;;;37.50;18.57;;;3.80;99.90;;;;;;5082859;28;20622;-77
2020/12/20 03:08:36;;;;;;;34.97;17.53;;;3.80;99.90;;;;;;5085836;28;20232;-77
2020/12/20 03:11:03;;;;;;;37.57;18.47;;;3.80;99.90;;;;;;5089828;28;20201;-77
2020/12/20 03:13:30;;;;;;;32.93;16.53;;;3.70;99.90;;;;;;5090511;28;20299;-78
2020/12/20 03:15:56;;;;;;;32.30;17.47;;;3.70;99.90;;;;;;5092876;28;20603;-79
2020/12/20 03:18:23;;;;;;;36.67;17.87;;;3.70;99.90;;;;;;5097276;28;20271;-77
2020/12/20 03:20:49;;;;;;;36.90;18.37;;;3.70;99.90;;;;;;5092400;28;20234;-77
2020/12/20 03:23:16;;;;;;;38.17;17.83;;;3.70;99.90;;;;;;5094847;28;20281;-78
2020/12/20 03:25:42;;;;;;;36.77;18.47;;;3.70;99.90;;;;;;5094905;28;20275;-78
2020/12/20 03:28:08;;;;;;;35.30;18.50;;;3.70;99.90;;;;;;5094723;28;20215;-77
2020/12/20 03:30:36;;;;;;;39.00;18.10;;;3.70;99.90;;;;;;5087127;28;20245;-77
2020/12/20 03:33:02;;;;;;;33.43;18.10;;;3.70;99.90;;;;;;5091810;28;20201;-77
2020/12/20 03:35:29;;;;;;;35.53;16.87;;;3.70;99.90;;;;;;5093158;28;20236;-76
2020/12/20 03:37:56;;;;;;;35.83;18.40;;;3.70;99.90;;;;;;5094072;28;20657;-78
2020/12/20 03:40:25;;;;;;;38.10;17.87;;;3.70;99.90;;;;;;5090173;28;20201;-78
2020/12/20 03:42:52;;;;;;;32.20;17.03;;;3.80;99.90;;;;;;5087077;28;20201;-77
2020/12/20 03:45:19;;;;;;;35.57;17.63;;;3.70;99.90;;;;;;5089024;28;20212;-78
2020/12/20 03:47:47;;;;;;;40.17;18.30;;;3.80;99.90;;;;;;5093624;28;20203;-79
2020/12/20 03:50:14;;;;;;;38.43;18.53;;;3.80;99.90;;;;;;5084152;28;20239;-77
2020/12/20 03:52:40;;;;;;;31.13;17.57;;;3.80;99.90;;;;;;5091350;28;20647;-79
2020/12/20 03:55:07;;;;;;;32.37;17.67;;;3.80;99.90;;;;;;5096748;28;20287;-78
2020/12/20 03:57:33;;;;;;;36.43;18.67;;;3.90;99.90;;;;;;5096085;28;20248;-80
2020/12/20 04:00:00;;;;;;;34.03;17.57;;;3.80;99.90;;;;;;5100163;28;20205;-78
2020/12/20 04:02:27;;;;;;;37.93;19.40;;;3.90;99.90;;;;;;5092842;28;20248;-78
2020/12/20 04:04:55;;;;;;;38.93;18.90;;;3.90;99.90;;;;;;5094461;28;20247;-78
2020/12/20 04:07:22;;;;;;;34.57;17.07;;;3.90;99.90;;;;;;5085722;28;20260;-77
2020/12/20 04:09:49;;;;;;;34.40;18.23;;;3.90;99.90;;;;;;5094204;28;20213;-77
2020/12/20 04:12:20;;;;;;;33.37;17.63;;;3.90;99.90;;;;;;5088204;28;20583;-77
2020/12/20 04:14:47;;;;;;;33.80;17.27;;;4.00;99.90;;;;;;5090207;28;20279;-77
2020/12/20 04:17:13;;;;;;;32.97;17.40;;;3.90;99.90;;;;;;5088228;28;20232;-77
2020/12/20 04:19:41;;;;;;;32.27;17.07;;;4.00;99.90;;;;;;5093448;28;20232;-76
2020/12/20 04:22:08;;;;;;;34.47;18.43;;;4.00;99.90;;;;;;5088714;28;20258;-77
2020/12/20 04:24:35;;;;;;;38.57;19.23;;;3.90;99.90;;;;;;5086891;28;20201;-76
2020/12/20 04:27:01;;;;;;;37.77;18.40;;;3.90;99.90;;;;;;5086217;28;20205;-76
2020/12/20 04:29:27;;;;;;;37.47;18.57;;;4.00;99.90;;;;;;5086159;28;20241;-77
2020/12/20 04:31:54;;;;;;;34.87;18.23;;;4.00;99.90;;;;;;5087421;28;20199;-78
2020/12/20 04:34:20;;;;;;;30.77;17.60;;;4.00;99.90;;;;;;5086202;28;20204;-77
2020/12/20 04:36:47;;;;;;;35.63;19.37;;;4.10;99.90;;;;;;5087890;28;20198;-77
2020/12/20 04:39:14;;;;;;;41.57;19.57;;;4.10;99.90;;;;;;5089160;28;20208;-77
2020/12/20 04:41:41;;;;;;;35.40;18.07;;;4.10;99.90;;;;;;5084638;28;20255;-78
2020/12/20 04:44:07;;;;;;;32.73;17.93;;;4.10;99.90;;;;;;5088639;28;20337;-77
2020/12/20 04:46:36;;;;;;;35.17;18.40;;;4.10;99.90;;;;;;5087836;28;20254;-78
2020/12/20 04:49:03;;;;;;;39.10;18.17;;;4.00;99.90;;;;;;5089126;28;20268;-78
2020/12/20 04:51:30;;;;;;;34.23;17.97;;;4.00;99.90;;;;;;5089567;28;20234;-79
2020/12/20 04:53:58;;;;;;;34.10;17.53;;;3.90;99.90;;;;;;5088534;28;20205;-77
2020/12/20 04:56:28;;;;;;;36.23;18.60;;;3.90;99.90;;;;;;5088686;28;20197;-77
2020/12/20 04:58:55;;;;;;;34.47;18.30;;;3.90;99.90;;;;;;5091177;28;20220;-77
2020/12/20 05:01:22;;;;;;;32.40;17.50;;;3.90;99.90;;;;;;5088304;28;20537;-77
2020/12/20 05:03:49;;;;;;;35.80;17.73;;;3.90;99.90;;;;;;5083961;28;20237;-78
2020/12/20 05:06:17;;;;;;;41.17;20.27;;;4.00;99.90;;;;;;5086682;28;20220;-78
2020/12/20 05:08:44;;;;;;;38.53;20.00;;;3.90;99.90;;;;;;5086680;28;20212;-78
2020/12/20 05:11:35;;;;;;;35.70;19.43;;;3.90;99.90;;;;;;5088061;28;20288;-77
2020/12/20 05:14:02;;;;;;;36.23;18.70;;;3.90;99.90;;;;;;5090526;28;20212;-79
2020/12/20 05:16:33;;;;;;;40.40;19.67;;;4.00;99.90;;;;;;5087314;28;20291;-80
2020/12/20 05:19:02;;;;;;;35.87;20.33;;;4.00;99.90;;;;;;5087699;28;20221;-77
2020/12/20 05:21:29;;;;;;;39.90;19.43;;;4.10;99.90;;;;;;5084153;28;20209;-77
2020/12/20 05:23:57;;;;;;;35.33;17.77;;;4.00;99.90;;;;;;5089187;28;20615;-77
2020/12/20 05:26:28;;;;;;;37.27;17.93;;;4.10;99.90;;;;;;5095377;28;20288;-77
2020/12/20 05:29:07;;;;;;;34.93;18.10;;;4.10;99.90;;;;;;5097736;28;20209;-76
2020/12/20 05:31:34;;;;;;;38.30;19.10;;;4.10;99.90;;;;;;5092172;28;20291;-77
2020/12/20 05:34:01;;;;;;;36.93;18.87;;;4.10;99.90;;;;;;5096682;28;20223;-76
2020/12/20 05:36:28;;;;;;;37.23;18.40;;;4.10;99.90;;;;;;5097692;28;20209;-76
2020/12/20 05:39:11;;;;;;;35.77;18.40;;;4.10;99.90;;;;;;5086995;28;20256;-76
2020/12/20 05:41:38;;;;;;;33.23;17.73;;;4.10;99.90;;;;;;5087068;28;20501;-77
2020/12/20 05:44:17;;;;;;;35.87;19.63;;;4.10;99.90;;;;;;5094713;28;20297;-76
2020/12/20 05:46:46;;;;;;;33.77;18.77;;;4.10;99.90;;;;;;5081259;28;20222;-77
2020/12/20 05:49:17;;;;;;;34.70;18.27;;;4.10;99.90;;;;;;5098923;28;20201;-78
2020/12/20 05:52:03;;;;;;;32.40;18.17;;;4.10;99.90;;;;;;5099638;28;20246;-78
2020/12/20 05:54:35;;;;;;;38.80;19.73;;;4.10;99.90;;;;;;5098526;28;20653;-77
2020/12/20 05:57:12;;;;;;;39.70;20.13;;;4.10;99.90;;;;;;5089056;28;20650;-77
2020/12/20 05:59:44;;;;;;;36.23;19.73;;;4.10;99.90;;;;;;5082413;28;20238;-78
2020/12/20 06:02:11;;;;;;;37.70;21.57;;;4.00;99.90;;;;;;5088998;28;20219;-78
2020/12/20 06:04:40;;;;;;;37.63;19.90;;;4.00;99.90;;;;;;5078962;28;20634;-76
2020/12/20 06:07:08;;;;;;;39.43;21.20;;;4.10;99.90;;;;;;5079162;28;20265;-76
2020/12/20 06:09:45;;;;;;;42.17;22.00;;;4.10;99.90;;;;;;5094234;28;20646;-77
2020/12/20 06:12:17;;;;;;;38.57;20.73;;;4.10;99.90;;;;;;5080294;28;20228;-77
2020/12/20 06:14:46;;;;;;;38.47;19.40;;;4.10;99.90;;;;;;5084819;28;20232;-79
2020/12/20 06:17:17;;;;;;;41.17;21.37;;;4.10;99.90;;;;;;5093479;28;20232;-75
2020/12/20 06:19:56;;;;;;;38.90;19.97;;;4.20;99.90;;;;;;5087716;28;20207;-78
2020/12/20 06:22:31;;;;;;;38.27;20.60;;;4.20;99.90;;;;;;5083394;28;20658;-76
2020/12/20 06:24:58;;;;;;;38.03;20.03;;;4.10;99.90;;;;;;5096202;28;20292;-77
2020/12/20 06:27:27;;;;;;;39.07;19.70;;;4.20;99.90;;;;;;5091971;28;20231;-76
2020/12/20 06:29:56;;;;;;;37.30;20.57;;;4.20;99.90;;;;;;5090858;28;20200;-77
2020/12/20 06:32:33;;;;;;;34.97;19.00;;;4.20;99.90;;;;;;5086435;28;20303;-77
2020/12/20 06:35:09;;;;;;;40.40;20.97;;;4.20;99.90;;;;;;5083657;28;20204;-77
2020/12/20 06:37:40;;;;;;;40.43;21.27;;;4.10;99.90;;;;;;5092359;28;20697;-74
2020/12/20 06:40:06;;;;;;;40.27;20.47;;;4.10;99.90;;;;;;5090180;28;20249;-73
2020/12/20 06:42:39;;;;;;;38.70;21.90;;;4.10;99.90;;;;;;5086380;28;20197;-74
2020/12/20 06:45:15;;;;;;;38.10;20.30;;;4.10;99.90;;;;;;5095919;28;20205;-80
2020/12/20 06:47:43;;;;;;;43.30;19.53;;;4.10;99.90;;;;;;5101896;28;20243;-80
2020/12/20 06:50:10;;;;;;;37.33;20.63;;;4.10;99.90;;;;;;5097727;28;20208;-81
2020/12/20 06:52:48;;;;;;;38.73;21.03;;;4.20;99.90;;;;;;5102744;28;20205;-80
2020/12/20 06:55:15;;;;;;;36.43;19.97;;;4.10;99.90;;;;;;5098168;28;20287;-80
2020/12/20 06:58:07;;;;;;;37.97;19.50;;;4.10;99.90;;;;;;5089524;28;20257;-77
2020/12/20 07:00:45;;;;;;;43.37;21.47;;;4.10;99.90;;;;;;5090881;28;20189;-81
2020/12/20 07:03:40;;;;;;;37.80;20.97;;;4.10;99.90;;;;;;5100154;28;20200;-80
2020/12/20 07:06:26;;;;;;;35.73;19.40;;;4.10;99.90;;;;;;5098554;28;20200;-79
2020/12/20 07:08:59;;;;;;;41.90;20.23;;;4.20;99.90;;;;;;5092445;28;20255;-78
2020/12/20 07:11:27;;;;;;;39.80;20.00;;;4.10;99.90;;;;;;5096677;28;20221;-78
2020/12/20 07:13:56;;;;;;;37.97;20.00;;;4.20;99.90;;;;;;5082521;28;20650;-78
2020/12/20 07:16:24;;;;;;;38.47;21.13;;;4.20;99.90;;;;;;5086278;28;20235;-78
2020/12/20 07:18:56;;;;;;;40.13;19.80;;;4.20;99.90;;;;;;5081836;28;20681;-78
2020/12/20 07:21:55;;;;;;;38.03;20.17;;;4.20;99.90;;;;;;5086303;28;20229;-78
2020/12/20 07:24:23;;;;;;;42.93;20.37;;;4.20;99.90;;;;;;5085741;28;20208;-77
2020/12/20 07:26:51;;;;;;;41.03;21.10;;;4.20;99.90;;;;;;5097887;28;20265;-77
2020/12/20 07:29:18;;;;;;;41.50;21.27;;;4.20;99.90;;;;;;5109083;28;20234;-77
2020/12/20 07:31:50;;;;;;;41.13;20.53;;;4.10;99.90;;;;;;5099878;28;20715;-76
2020/12/20 07:34:17;;;;;;;35.87;20.17;;;4.10;99.90;;;;;;5110367;28;20214;-77
2020/12/20 07:36:44;;;;;;;42.43;22.37;;;4.10;99.90;;;;;;5106728;28;20202;-77
2020/12/20 07:39:12;;;;;;;41.47;21.70;;;4.10;99.90;;;;;;5110122;28;20262;-76
2020/12/20 07:41:38;;;;;;;35.27;19.13;;;4.10;99.90;;;;;;5104650;28;20213;-79
2020/12/20 07:44:06;;;;;;;35.17;19.57;;;4.10;99.90;;;;;;5101624;28;20284;-78
2020/12/20 07:46:33;;;;;;;37.67;18.57;;;4.10;99.90;;;;;;5110573;28;20204;-78
2020/12/20 07:49:06;;;;;;;34.83;19.00;;;4.20;99.90;;;;;;5108047;28;20208;-75
2020/12/20 07:51:33;;;;;;;33.20;18.40;;;4.20;99.90;;;;;;5099540;28;20204;-77
2020/12/20 07:54:02;;;;;;;36.43;18.27;;;4.20;99.90;;;;;;5087078;28;20206;-78
2020/12/20 07:56:30;;;;;;;30.00;16.97;;;4.30;99.90;;;;;;5098115;28;20231;-81
2020/12/20 07:58:59;;;;;;;31.87;16.93;;;4.30;99.90;;;;;;5086552;28;20221;-79
2020/12/20 08:01:26;;;;;;;32.53;18.00;;;4.40;99.90;;;;;;5100612;28;20251;-79
2020/12/20 08:04:03;;;;;;;39.73;21.27;;;4.50;99.90;;;;;;5091730;28;20236;-79
2020/12/20 08:06:32;;;;;;;40.03;21.40;;;4.50;99.90;;;;;;5092064;28;20197;-79
2020/12/20 08:09:07;;;;;;;41.17;20.87;;;4.50;99.90;;;;;;5099172;28;20214;-77
2020/12/20 08:11:34;;;;;;;40.23;22.40;;;4.50;99.90;;;;;;5087603;28;20327;-80
2020/12/20 08:14:03;;;;;;;40.80;21.97;;;4.40;99.90;;;;;;5096781;28;20216;-77
2020/12/20 08:16:31;;;;;;;40.47;21.30;;;4.40;99.90;;;;;;5089609;28;20196;-78
2020/12/20 08:19:00;;;;;;;44.10;23.00;;;4.30;99.90;;;;;;5097992;28;20695;-75
2020/12/20 08:21:37;;;;;;;46.30;23.77;;;4.40;99.90;;;;;;5088719;28;20213;-74
2020/12/20 08:24:03;;;;;;;44.10;22.37;;;4.30;99.90;;;;;;5090909;28;20684;-74
2020/12/20 08:26:33;;;;;;;48.37;24.67;;;4.30;99.90;;;;;;5085514;28;20205;-74
2020/12/20 08:29:01;;;;;;;44.53;23.40;;;4.30;99.90;;;;;;5090417;28;20232;-74
2020/12/20 08:31:29;;;;;;;44.27;22.53;;;4.30;99.90;;;;;;5090535;28;20247;-75
2020/12/20 08:33:56;;;;;;;43.23;22.23;;;4.30;99.90;;;;;;5093898;28;20236;-74
2020/12/20 08:36:22;;;;;;;45.47;22.33;;;4.30;99.90;;;;;;5080601;28;20208;-75
2020/12/20 08:38:50;;;;;;;46.13;23.63;;;4.30;99.90;;;;;;5090228;28;20237;-73
2020/12/20 08:41:21;;;;;;;44.90;22.57;;;4.30;99.90;;;;;;5090146;28;20208;-73
2020/12/20 08:43:48;;;;;;;43.27;22.00;;;4.30;99.90;;;;;;5094033;28;20670;-73
2020/12/20 08:46:28;;;;;;;42.13;20.93;;;4.30;99.90;;;;;;5090595;28;20209;-73
2020/12/20 08:49:09;;;;;;;42.13;21.00;;;4.20;99.90;;;;;;5091364;28;20676;-73
2020/12/20 08:51:35;;;;;;;42.47;22.07;;;4.20;99.90;;;;;;5095077;27;20665;-72
2020/12/20 08:54:02;;;;;;;46.63;22.93;;;4.20;99.90;;;;;;5082093;28;20205;-72
2020/12/20 08:56:29;;;;;;;42.80;21.40;;;4.20;99.90;;;;;;5098676;28;20732;-72
2020/12/20 08:58:58;;;;;;;38.93;21.27;;;4.20;99.90;;;;;;5088173;28;20284;-72
2020/12/20 09:01:26;;;;;;;38.40;19.83;;;4.20;99.90;;;;;;5084861;28;20228;-73
2020/12/20 09:03:52;;;;;;;42.67;21.57;;;4.20;99.90;;;;;;5080928;28;20604;-72
2020/12/20 09:06:18;;;;;;;41.33;21.43;;;4.10;99.90;;;;;;5087827;28;20253;-73
2020/12/20 09:08:45;;;;;;;37.77;21.47;;;4.20;99.90;;;;;;5089453;28;20228;-74
2020/12/20 09:11:24;;;;;;;41.93;21.97;;;4.10;99.90;;;;;;5096968;28;20209;-74
2020/12/20 09:13:51;;;;;;;37.47;21.23;;;4.10;99.90;;;;;;5083209;28;20216;-73
2020/12/20 09:16:18;;;;;;;43.30;21.13;;;4.10;99.90;;;;;;5092962;28;20228;-74
2020/12/20 09:18:45;;;;;;;39.83;20.07;;;4.20;99.90;;;;;;5096235;28;20719;-73
2020/12/20 09:21:22;;;;;;;38.80;21.57;;;4.10;99.90;;;;;;5096314;28;20209;-74
2020/12/20 09:23:57;;;;;;;40.83;22.33;;;4.10;99.90;;;;;;5088640;28;20287;-72
2020/12/20 09:26:24;;;;;;;40.00;21.17;;;4.10;99.90;;;;;;5093881;28;20196;-73
2020/12/20 09:28:51;;;;;;;38.50;21.33;;;4.10;99.90;;;;;;5088834;28;20215;-72
2020/12/20 09:31:19;;;;;;;40.83;20.67;;;4.20;99.90;;;;;;5090051;28;20238;-73
2020/12/20 09:33:48;;;;;;;40.37;22.03;;;4.20;99.90;;;;;;5086013;28;20730;-74
2020/12/20 09:36:20;;;;;;;40.37;22.47;;;4.30;99.90;;;;;;5091773;28;20279;-75
2020/12/20 09:38:48;;;;;;;35.63;20.17;;;4.30;99.90;;;;;;5087437;28;20647;-73
2020/12/20 09:41:16;;;;;;;41.70;23.20;;;4.30;99.90;;;;;;5089594;28;20662;-72
2020/12/20 09:43:45;;;;;;;38.43;20.30;;;4.30;99.90;;;;;;5089718;28;20736;-73
2020/12/20 09:46:19;;;;;;;41.17;21.73;;;4.30;99.90;;;;;;5090650;28;20213;-74
2020/12/20 09:48:46;;;;;;;39.17;21.07;;;4.40;99.90;;;;;;5095265;28;20204;-73
2020/12/20 09:51:13;;;;;;;38.60;22.07;;;4.30;99.90;;;;;;5090851;28;20236;-73
2020/12/20 09:53:39;;;;;;;41.30;21.63;;;4.40;99.90;;;;;;5096547;28;20217;-75
2020/12/20 09:56:05;;;;;;;41.47;22.43;;;4.40;99.90;;;;;;5094070;28;20211;-75
2020/12/20 09:58:32;;;;;;;44.93;23.23;;;4.40;99.90;;;;;;5088047;28;20256;-75
2020/12/20 10:00:59;;;;;;;43.90;22.63;;;4.40;99.90;;;;;;5088093;28;20209;-76
2020/12/20 10:03:27;;;;;;;43.47;22.73;;;4.40;99.90;;;;;;5095654;28;20208;-74
2020/12/20 10:05:56;;;;;;;47.80;23.57;;;4.40;99.90;;;;;;5092301;28;20205;-74
2020/12/20 10:08:23;;;;;;;46.33;23.33;;;4.40;99.90;;;;;;5093704;28;20211;-76
2020/12/20 10:10:51;;;;;;;44.50;22.23;;;4.50;99.90;;;;;;5080282;28;20321;-75
2020/12/20 10:13:17;;;;;;;45.67;22.43;;;4.40;99.90;;;;;;5092457;28;20228;-74
2020/12/20 10:15:44;;;;;;;43.03;23.63;;;4.40;99.90;;;;;;5086223;28;20235;-74
2020/12/20 10:18:13;;;;;;;48.80;23.90;;;4.40;99.90;;;;;;5093495;28;20259;-74
2020/12/20 10:20:39;;;;;;;49.47;24.73;;;4.40;99.90;;;;;;5096973;28;20200;-75
2020/12/20 10:23:06;;;;;;;45.23;24.13;;;4.40;99.90;;;;;;5084574;28;20268;-76
2020/12/20 10:25:33;;;;;;;42.80;22.73;;;4.40;99.90;;;;;;5089175;28;20236;-75
2020/12/20 10:28:00;;;;;;;42.77;23.83;;;4.40;99.90;;;;;;5087720;28;20212;-74
2020/12/20 10:30:27;;;;;;;53.03;25.67;;;4.40;99.90;;;;;;5089938;28;20209;-73
2020/12/20 10:32:54;;;;;;;51.07;24.27;;;4.30;99.90;;;;;;5096426;28;20204;-73
2020/12/20 10:35:24;;;;;;;52.50;24.63;;;4.40;99.90;;;;;;5091238;28;20210;-75
2020/12/20 10:37:51;;;;;;;45.43;23.87;;;4.40;99.90;;;;;;5083358;28;20572;-76
2020/12/20 10:40:18;;;;;;;46.00;23.10;;;4.30;99.90;;;;;;5087376;28;20244;-80
2020/12/20 10:42:46;;;;;;;46.40;24.13;;;4.40;99.90;;;;;;5089399;28;20212;-79
2020/12/20 10:45:13;;;;;;;44.53;22.93;;;4.40;99.90;;;;;;5093382;28;20208;-78
2020/12/20 10:47:40;;;;;;;43.97;23.37;;;4.40;99.90;;;;;;5086217;28;20201;-77
2020/12/20 10:50:07;;;;;;;43.43;22.23;;;4.40;99.90;;;;;;5089076;28;20280;-79
2020/12/20 10:52:34;;;;;;;47.20;22.87;;;4.50;99.90;;;;;;5088707;28;20235;-78
2020/12/20 10:55:02;;;;;;;38.23;23.03;;;4.40;99.90;;;;;;5094191;28;21780;-79
2020/12/20 10:57:29;;;;;;;38.73;22.03;;;4.40;99.90;;;;;;5088795;28;20274;-75
2020/12/20 10:59:55;;;;;;;38.10;21.20;;;4.40;99.90;;;;;;5080907;28;20535;-76
2020/12/20 11:02:22;;;;;;;40.60;22.70;;;4.40;99.90;;;;;;5079894;28;20202;-76
2020/12/20 11:04:48;;;;;;;35.50;20.63;;;4.40;99.90;;;;;;5084119;28;20241;-75
2020/12/20 11:07:16;;;;;;;39.10;21.37;;;4.40;99.90;;;;;;5090543;28;20227;-77
2020/12/20 11:09:44;;;;;;;36.33;20.17;;;4.50;99.90;;;;;;5083740;28;20197;-77
2020/12/20 11:12:10;;;;;;;42.43;22.57;;;4.50;99.90;;;;;;5087131;28;20229;-77
2020/12/20 11:14:37;;;;;;;35.33;20.90;;;4.50;99.90;;;;;;5092699;28;20212;-78
2020/12/20 11:17:04;;;;;;;34.87;20.40;;;4.50;99.90;;;;;;5088381;28;20213;-77
2020/12/20 11:19:31;;;;;;;33.67;19.17;;;4.50;99.90;;;;;;5086431;28;20228;-75
2020/12/20 11:21:58;;;;;;;29.83;17.50;;;4.50;99.90;;;;;;5086478;28;20224;-75
2020/12/20 11:24:25;;;;;;;30.30;17.63;;;4.60;99.90;;;;;;5079625;28;20241;-74
2020/12/20 11:26:54;;;;;;;29.10;18.17;;;4.60;99.90;;;;;;5079484;28;20270;-76
2020/12/20 11:29:21;;;;;;;31.57;18.37;;;4.50;99.90;;;;;;5081761;28;20326;-75
2020/12/20 11:31:48;;;;;;;30.07;15.80;;;4.50;99.90;;;;;;5090750;28;20669;-75
2020/12/20 11:34:14;;;;;;;32.47;18.37;;;4.50;99.90;;;;;;5083280;28;20295;-75
2020/12/20 11:36:42;;;;;;;30.07;17.77;;;4.60;99.90;;;;;;5084752;28;20291;-74
2020/12/20 11:39:10;;;;;;;28.27;17.30;;;4.50;99.90;;;;;;5085705;28;20306;-75
2020/12/20 11:41:38;;;;;;;33.20;18.53;;;4.60;99.90;;;;;;5085416;28;20200;-77
2020/12/20 11:44:06;;;;;;;29.23;17.40;;;4.60;99.90;;;;;;5090759;28;20284;-77
2020/12/20 11:46:32;;;;;;;35.40;18.30;;;4.60;99.90;;;;;;5084464;28;20205;-79
2020/12/20 11:48:59;;;;;;;30.67;19.50;;;4.60;99.90;;;;;;5088992;28;20291;-77
2020/12/20 11:51:27;;;;;;;32.30;17.17;;;4.60;99.90;;;;;;5090794;28;20240;-74
2020/12/20 11:53:54;;;;;;;29.70;17.47;;;4.60;99.90;;;;;;5090068;28;20215;-77
2020/12/20 11:56:21;;;;;;;30.57;18.23;;;4.60;99.90;;;;;;5087023;28;20206;-76
2020/12/20 11:58:48;;;;;;;52.57;25.57;;;4.60;99.90;;;;;;5086581;28;20213;-75
2020/12/20 12:01:20;;;;;;;56.60;27.97;;;4.50;99.90;;;;;;5082362;28;20639;-75
2020/12/20 12:03:47;;;;;;;61.00;28.73;;;4.50;99.90;;;;;;5085537;28;20251;-78
2020/12/20 12:06:14;;;;;;;57.33;28.23;;;4.30;99.90;;;;;;5090068;28;20230;-77
2020/12/20 12:08:41;;;;;;;60.10;27.67;;;4.30;99.90;;;;;;5093218;28;20212;-78
2020/12/20 12:11:10;;;;;;;61.07;29.60;;;4.20;99.90;;;;;;5093218;28;20209;-73
2020/12/20 12:13:36;;;;;;;61.27;29.47;;;4.10;99.90;;;;;;5088368;28;20213;-77
2020/12/20 12:16:04;;;;;;;60.67;30.53;;;4.00;99.90;;;;;;5089467;28;20215;-77
2020/12/20 12:18:32;;;;;;;62.30;28.33;;;3.90;99.90;;;;;;5090238;28;20281;-79
2020/12/20 12:20:58;;;;;;;57.80;28.73;;;3.70;99.90;;;;;;5087929;28;20236;-76
2020/12/20 12:23:26;;;;;;;63.83;29.50;;;3.70;99.90;;;;;;5089855;28;20224;-78
2020/12/20 12:25:54;;;;;;;64.43;29.87;;;3.60;99.90;;;;;;5086329;28;20235;-77
2020/12/20 12:28:22;;;;;;;62.43;28.47;;;3.60;99.90;;;;;;5088057;28;20208;-76
2020/12/20 12:30:49;;;;;;;53.57;26.57;;;3.60;99.90;;;;;;5089455;28;20268;-78
2020/12/20 12:33:15;;;;;;;55.40;26.83;;;3.60;99.90;;;;;;5090864;28;20211;-78
2020/12/20 12:35:44;;;;;;;58.33;29.10;;;3.50;99.90;;;;;;5089745;28;20197;-78
2020/12/20 12:38:10;;;;;;;51.93;26.17;;;3.50;99.90;;;;;;5086748;28;20311;-78
2020/12/20 12:40:37;;;;;;;58.40;30.27;;;3.50;99.90;;;;;;5090297;28;20201;-79
2020/12/20 12:43:05;;;;;;;58.57;27.63;;;3.40;99.90;;;;;;5085926;28;20209;-77